Las Isletillas, Argentina
Current Conditions -  °F | °C
As of 3:00 AM on Wednesday 22 Oct 2014 (Local Time) from SAOC Reporting Station
Clear Clear  
Wind Chill: 64°   Ceiling: Unl
Heat Index: 64°   Visibility: 6mi
Dew Point: 54°   Wind: 12mph
Humidity: 68%   Direction: 360°N
Pressure: 29.91"   Gusts: NA
Location:  32.38°S, 63.78°W
Report Text: SAOC 220600Z 36010KT CAVOK 18/12 Q1013
Loading
Personal Weather Stations






























Interactive Weather Map
Tropical Storm Tracking
New forecast layout! Learn more

10-Day Weather Forecast

Advertisements
Track Severe Weather on mobile